Time;durP1;ratioP1;P1;durP2;ratioP2;P2;SDS_P1;SDS_P2;PMS_P1;PMS_P2;Temp;Humidity;BMP_temperature;BMP_pressure;BME280_temperature;BME280_humidity;BME280_pressure;Samples;Min_cycle;Max_cycle;Signal;HPM_P1;HPM_P2
2021/09/09 00:01:05;;;;;;;8.20;6.05;;;20.20;70.20;;;;;;2042418;29;20044;-96
2021/09/09 00:02:25;;;;;;;8.10;5.88;;;20.20;70.20;;;;;;2034260;29;20047;-96
2021/09/09 00:03:45;;;;;;;8.52;5.53;;;20.20;70.20;;;;;;2054438;28;20509;-96
2021/09/09 00:05:07;;;;;;;;;;;20.20;70.20;;;;;;2059995;28;20094;-96
2021/09/09 00:06:27;;;;;;;7.75;5.25;;;20.20;70.10;;;;;;2052276;28;19914;-96
2021/09/09 00:07:47;;;;;;;8.20;5.93;;;20.20;70.10;;;;;;2065939;28;20022;-96
2021/09/09 00:09:06;;;;;;;8.68;5.72;;;20.20;70.20;;;;;;2054811;28;20043;-96
2021/09/09 00:10:27;;;;;;;7.50;5.25;;;20.20;70.20;;;;;;2056097;28;20019;-96
2021/09/09 00:11:46;;;;;;;8.38;5.80;;;20.10;70.20;;;;;;2053654;29;20058;-96
2021/09/09 00:13:05;;;;;;;8.02;5.72;;;20.10;70.30;;;;;;2048975;29;20035;-96
2021/09/09 00:14:25;;;;;;;6.93;5.25;;;20.10;70.30;;;;;;2061918;28;20118;-96
2021/09/09 00:15:45;;;;;;;7.85;5.65;;;20.10;70.40;;;;;;2063164;28;20031;-96
2021/09/09 00:17:06;;;;;;;8.05;5.70;;;20.10;70.40;;;;;;2051702;29;20059;-96
2021/09/09 00:18:26;;;;;;;;;;;20.10;70.50;;;;;;2051183;29;20032;-96
2021/09/09 00:19:45;;;;;;;7.47;5.13;;;20.00;70.40;;;;;;2064919;28;19953;-96
2021/09/09 00:21:04;;;;;;;7.00;5.13;;;20.00;70.40;;;;;;2052868;29;20035;-96
2021/09/09 00:22:29;;;;;;;7.45;5.18;;;20.00;70.50;;;;;;2061993;28;20056;-96
2021/09/09 00:23:49;;;;;;;7.95;5.70;;;20.00;70.60;;;;;;2048852;29;20039;-96
2021/09/09 00:25:09;;;;;;;7.28;5.53;;;20.00;70.60;;;;;;2047240;29;20102;-96
2021/09/09 00:26:28;;;;;;;7.40;5.53;;;20.00;70.70;;;;;;2046188;28;20109;-96
2021/09/09 00:27:49;;;;;;;7.28;5.45;;;20.00;70.70;;;;;;2055457;28;20563;-96
2021/09/09 00:29:09;;;;;;;7.72;5.63;;;20.00;70.70;;;;;;2054524;29;20525;-95
2021/09/09 00:30:28;;;;;;;7.93;6.10;;;20.00;70.80;;;;;;2062931;28;20034;-96
2021/09/09 00:31:47;;;;;;;7.32;5.72;;;20.00;70.80;;;;;;2038863;29;20056;-96
2021/09/09 00:33:08;;;;;;;8.43;6.07;;;19.90;70.70;;;;;;2047592;29;20023;-96
2021/09/09 00:34:29;;;;;;;7.90;5.82;;;19.90;70.70;;;;;;2052490;28;20023;-96
2021/09/09 00:35:48;;;;;;;;;;;19.90;70.80;;;;;;2058924;28;20026;-96
2021/09/09 00:37:08;;;;;;;8.10;5.47;;;19.90;70.70;;;;;;2053519;28;19936;-96
2021/09/09 00:38:27;;;;;;;7.65;5.70;;;19.90;70.70;;;;;;2066198;28;20117;-96
2021/09/09 00:39:49;;;;;;;8.07;5.68;;;19.90;70.80;;;;;;2051587;29;20031;-95
2021/09/09 00:41:09;;;;;;;7.00;5.30;;;19.90;70.90;;;;;;2062138;28;20089;-96
2021/09/09 00:42:30;;;;;;;9.18;5.85;;;19.80;70.90;;;;;;2061506;28;20034;-96
2021/09/09 00:43:51;;;;;;;7.95;5.40;;;19.80;70.90;;;;;;2058577;28;20035;-96
2021/09/09 00:45:12;;;;;;;10.10;7.00;;;19.80;70.90;;;;;;2041340;29;20032;-96
2021/09/09 00:46:31;;;;;;;;;;;19.80;71.00;;;;;;2055307;28;20201;-96
2021/09/09 00:47:52;;;;;;;7.90;5.78;;;19.80;71.00;;;;;;2059583;28;19909;-96
2021/09/09 00:49:13;;;;;;;7.45;5.60;;;19.80;71.00;;;;;;2056019;28;20039;-96
2021/09/09 00:50:32;;;;;;;8.10;6.30;;;19.80;71.00;;;;;;2053325;29;20043;-95
2021/09/09 00:51:52;;;;;;;8.80;6.07;;;19.70;71.00;;;;;;2050941;29;20047;-96
2021/09/09 00:53:11;;;;;;;7.68;5.90;;;19.70;71.00;;;;;;2054818;28;20043;-96
2021/09/09 00:54:30;;;;;;;8.63;6.00;;;19.70;71.10;;;;;;2048542;29;20039;-96
2021/09/09 00:55:50;;;;;;;9.68;6.13;;;19.70;71.10;;;;;;2055691;28;20035;-96
2021/09/09 00:57:11;;;;;;;8.85;6.22;;;19.70;71.10;;;;;;2064762;28;20042;-96
2021/09/09 00:58:31;;;;;;;8.48;6.07;;;19.70;71.20;;;;;;2049343;29;20028;-96
2021/09/09 00:59:52;;;;;;;8.32;6.38;;;19.70;71.20;;;;;;2047996;28;20035;-96
2021/09/09 01:01:12;;;;;;;7.57;6.25;;;19.70;71.20;;;;;;2059317;28;20058;-95
2021/09/09 01:02:39;;;;;;;8.77;5.85;;;19.70;71.20;;;;;;2062245;28;20039;-96
2021/09/09 01:04:00;;;;;;;9.02;6.35;;;19.70;71.30;;;;;;2047385;29;20023;-96
2021/09/09 01:05:19;;;;;;;;;;;19.60;71.20;;;;;;2053000;29;20039;-96
2021/09/09 01:06:40;;;;;;;7.80;5.65;;;19.60;71.20;;;;;;2064688;28;19953;-90
2021/09/09 01:07:59;;;;;;;7.22;5.55;;;19.60;71.20;;;;;;2051415;29;20035;-95
2021/09/09 01:09:19;;;;;;;8.18;5.78;;;19.60;71.20;;;;;;2069848;28;20022;-95
2021/09/09 01:10:39;;;;;;;8.82;6.10;;;19.60;71.90;;;;;;2068680;28;20015;-92
2021/09/09 01:11:58;;;;;;;9.15;6.32;;;19.60;71.40;;;;;;2046957;29;20008;-92
2021/09/09 01:13:21;;;;;;;7.60;5.72;;;19.60;71.40;;;;;;2060795;28;20102;-92
2021/09/09 01:14:40;;;;;;;8.38;5.93;;;19.60;71.40;;;;;;2068627;28;20011;-93
2021/09/09 01:16:00;;;;;;;9.07;6.30;;;19.60;71.50;;;;;;2062187;28;20029;-93
2021/09/09 01:17:19;;;;;;;8.80;6.95;;;19.60;71.50;;;;;;2067761;28;20019;-93
2021/09/09 01:18:39;;;;;;;8.95;6.00;;;19.50;71.50;;;;;;2067446;28;20079;-91
2021/09/09 01:19:58;;;;;;;9.73;6.80;;;19.60;71.60;;;;;;2053411;28;20023;-93
2021/09/09 01:21:17;;;;;;;8.18;5.97;;;19.50;71.60;;;;;;2055700;28;20027;-96
2021/09/09 01:22:37;;;;;;;8.52;6.50;;;19.50;71.60;;;;;;2059467;28;20035;-96
2021/09/09 01:23:58;;;;;;;8.75;6.38;;;19.50;71.70;;;;;;2049777;28;20035;-96
2021/09/09 01:25:17;;;;;;;9.10;6.60;;;19.50;71.70;;;;;;2057585;28;20039;-96
2021/09/09 01:26:55;;;;;;;8.75;6.93;;;19.50;71.70;;;;;;2059421;28;20122;-96
2021/09/09 01:28:14;;;;;;;9.18;6.82;;;19.50;71.70;;;;;;2058344;28;20039;-96
2021/09/09 01:29:40;;;;;;;8.23;6.38;;;19.40;71.70;;;;;;2048588;29;20043;-96
2021/09/09 01:31:01;;;;;;;9.00;6.53;;;19.40;71.70;;;;;;2056451;28;20031;-96
2021/09/09 01:32:20;;;;;;;8.70;6.47;;;19.40;71.80;;;;;;2048931;28;20125;-96
2021/09/09 01:33:40;;;;;;;8.65;6.13;;;19.50;71.90;;;;;;2046588;29;20027;-96
2021/09/09 01:34:59;;;;;;;9.10;6.88;;;19.40;71.80;;;;;;2061610;28;20038;-95
2021/09/09 01:36:20;;;;;;;8.48;6.32;;;19.40;71.90;;;;;;2051499;28;20020;-94
2021/09/09 01:37:39;;;;;;;7.78;6.10;;;19.40;71.90;;;;;;2055994;28;20015;-96
2021/09/09 01:38:59;;;;;;;7.93;5.90;;;19.40;72.00;;;;;;2057570;28;20031;-91
2021/09/09 01:40:27;;;;;;;8.73;5.97;;;19.40;72.00;;;;;;2069832;28;20019;-95
2021/09/09 01:41:55;;;;;;;8.55;6.38;;;19.40;72.10;;;;;;2064557;28;20030;-96
2021/09/09 01:43:16;;;;;;;8.55;6.10;;;19.40;72.10;;;;;;2057759;28;20063;-96
2021/09/09 01:44:35;;;;;;;8.10;6.05;;;19.30;72.00;;;;;;2061420;28;20081;-90
2021/09/09 01:45:55;;;;;;;8.65;5.93;;;19.30;72.10;;;;;;2061667;28;20011;-94
2021/09/09 01:47:14;;;;;;;8.93;6.35;;;19.30;72.10;;;;;;2051292;28;20068;-92
2021/09/09 01:48:33;;;;;;;8.48;6.28;;;19.30;72.10;;;;;;2075831;28;20010;-94
2021/09/09 01:49:54;;;;;;;8.45;5.95;;;19.30;72.10;;;;;;2064886;28;20019;-92
2021/09/09 01:51:20;;;;;;;9.30;6.20;;;19.30;72.20;;;;;;2067770;28;20023;-94
2021/09/09 01:52:39;;;;;;;9.70;6.20;;;19.30;72.20;;;;;;2060107;28;20036;-96
2021/09/09 01:53:59;;;;;;;8.43;6.18;;;19.30;72.20;;;;;;2068914;28;20018;-96
2021/09/09 01:55:18;;;;;;;7.72;5.97;;;19.30;72.30;;;;;;2054221;28;20035;-91
2021/09/09 01:56:38;;;;;;;7.72;5.88;;;19.20;72.30;;;;;;2054487;28;20011;-92
2021/09/09 01:58:00;;;;;;;8.35;6.25;;;19.30;72.40;;;;;;2055794;28;20031;-96
2021/09/09 01:59:20;;;;;;;9.70;6.38;;;19.20;72.40;;;;;;2044840;29;20016;-95
2021/09/09 02:00:39;;;;;;;8.10;6.03;;;19.20;72.40;;;;;;2053049;28;20023;-96
2021/09/09 02:01:59;;;;;;;7.75;6.05;;;19.20;72.50;;;;;;2060213;28;20106;-96
2021/09/09 02:03:19;;;;;;;8.93;6.68;;;19.20;72.50;;;;;;2051269;28;20537;-96
2021/09/09 02:04:39;;;;;;;9.05;6.72;;;19.20;72.50;;;;;;2050168;29;20027;-96
2021/09/09 02:05:58;;;;;;;8.82;6.65;;;19.20;72.50;;;;;;2050307;28;20118;-96
2021/09/09 02:07:18;;;;;;;8.60;6.70;;;19.10;72.60;;;;;;2053914;28;20035;-96
2021/09/09 02:08:38;;;;;;;8.57;6.78;;;19.10;72.70;;;;;;2049538;29;20040;-96
2021/09/09 02:09:57;;;;;;;9.32;6.90;;;19.10;72.70;;;;;;2058180;28;20030;-96
2021/09/09 02:11:17;;;;;;;8.80;6.70;;;19.10;72.70;;;;;;2067147;28;20034;-96
2021/09/09 02:12:37;;;;;;;8.30;6.32;;;19.10;72.80;;;;;;2048357;29;20044;-96
2021/09/09 02:13:58;;;;;;;8.63;6.50;;;19.00;72.80;;;;;;2046237;28;20028;-96
2021/09/09 02:15:18;;;;;;;11.27;6.95;;;19.00;72.90;;;;;;2045335;28;20044;-96
2021/09/09 02:16:38;;;;;;;8.02;5.88;;;19.00;72.90;;;;;;2059542;28;20034;-96
2021/09/09 02:17:57;;;;;;;9.95;6.78;;;19.00;73.00;;;;;;2059219;28;20042;-96
2021/09/09 02:19:17;;;;;;;9.38;6.32;;;19.00;73.00;;;;;;2059275;28;20030;-95
2021/09/09 02:20:36;;;;;;;8.52;6.28;;;19.00;73.00;;;;;;2067725;28;20038;-96
2021/09/09 02:22:03;;;;;;;8.43;6.25;;;19.00;73.10;;;;;;2060904;28;20102;-96
2021/09/09 02:23:25;;;;;;;8.80;5.88;;;19.00;73.10;;;;;;2056153;28;20043;-96
2021/09/09 02:24:45;;;;;;;8.68;6.50;;;19.00;73.10;;;;;;2060247;28;20035;-96
2021/09/09 02:26:05;;;;;;;8.45;6.03;;;19.00;73.10;;;;;;2070991;28;20037;-95
2021/09/09 02:27:25;;;;;;;8.75;6.47;;;18.90;73.10;;;;;;2069008;28;20034;-96
2021/09/09 02:28:44;;;;;;;8.50;6.40;;;18.90;73.10;;;;;;2063830;28;20034;-96
2021/09/09 02:30:05;;;;;;;10.63;6.97;;;18.90;73.20;;;;;;2059565;28;20042;-96
2021/09/09 02:31:24;;;;;;;8.88;6.38;;;18.90;73.20;;;;;;2035692;29;20060;-96
2021/09/09 02:32:44;;;;;;;8.57;6.35;;;18.90;73.30;;;;;;2046145;29;20027;-96
2021/09/09 02:34:05;;;;;;;8.52;6.32;;;18.90;73.30;;;;;;2051845;29;20039;-96
2021/09/09 02:35:25;;;;;;;8.70;6.53;;;18.90;73.30;;;;;;2045497;29;20028;-96
2021/09/09 02:36:44;;;;;;;8.65;6.40;;;18.90;73.30;;;;;;2053702;28;20039;-96
2021/09/09 02:38:04;;;;;;;10.00;6.97;;;18.90;73.40;;;;;;2050964;29;20039;-96
2021/09/09 02:39:26;;;;;;;8.75;6.25;;;18.90;73.40;;;;;;2050022;28;20035;-96
2021/09/09 02:40:45;;;;;;;8.82;6.65;;;18.90;73.40;;;;;;2046717;29;20040;-95
2021/09/09 02:42:05;;;;;;;9.02;6.97;;;18.80;73.30;;;;;;2051035;29;20028;-96
2021/09/09 02:43:26;;;;;;;9.15;6.78;;;18.90;73.40;;;;;;2049814;29;20070;-95
2021/09/09 02:44:46;;;;;;;8.05;6.18;;;18.80;73.40;;;;;;2052119;28;20023;-96
2021/09/09 02:46:05;;;;;;;9.50;6.80;;;18.80;73.40;;;;;;2054944;28;20043;-96
2021/09/09 02:47:25;;;;;;;8.27;6.10;;;18.80;73.50;;;;;;2056603;28;20027;-96
2021/09/09 02:48:45;;;;;;;8.10;6.28;;;18.80;73.50;;;;;;2057557;28;20039;-96
2021/09/09 02:50:15;;;;;;;8.23;6.30;;;18.80;73.50;;;;;;2055354;29;20035;-96
2021/09/09 02:51:37;;;;;;;8.43;5.72;;;18.80;73.60;;;;;;2051742;29;20035;-96
2021/09/09 02:52:58;;;;;;;9.55;6.22;;;18.80;73.60;;;;;;2044546;29;20043;-96
2021/09/09 02:54:17;;;;;;;8.35;6.00;;;18.70;73.50;;;;;;2040625;29;20036;-96
2021/09/09 02:55:39;;;;;;;8.45;6.10;;;18.80;73.60;;;;;;2050926;29;20122;-96
2021/09/09 02:56:59;;;;;;;8.35;6.35;;;18.70;73.60;;;;;;2060185;28;20038;-96
2021/09/09 02:58:18;;;;;;;8.18;6.32;;;18.70;73.60;;;;;;2065765;28;20034;-96
2021/09/09 02:59:37;;;;;;;9.52;6.78;;;18.70;73.70;;;;;;2047578;28;20048;-96
2021/09/09 03:00:57;;;;;;;8.98;6.25;;;18.70;73.70;;;;;;2056260;28;20035;-96
2021/09/09 03:02:16;;;;;;;8.68;6.30;;;18.70;73.70;;;;;;2051949;28;20098;-96
2021/09/09 03:03:35;;;;;;;8.20;5.95;;;18.70;73.80;;;;;;2047558;29;20099;-96
2021/09/09 03:04:56;;;;;;;9.15;6.97;;;18.70;73.80;;;;;;2044478;29;20035;-96
2021/09/09 03:06:15;;;;;;;8.95;6.40;;;18.70;74.00;;;;;;2048039;29;20086;-96
2021/09/09 03:07:36;;;;;;;8.43;6.28;;;18.70;73.90;;;;;;2026159;29;20036;-96
2021/09/09 03:08:56;;;;;;;8.38;6.20;;;18.60;74.00;;;;;;2055073;28;20053;-96
2021/09/09 03:10:15;;;;;;;8.10;6.30;;;18.60;74.00;;;;;;2062587;28;20039;-96
2021/09/09 03:11:35;;;;;;;8.55;6.38;;;18.60;74.10;;;;;;2043289;29;20434;-96
2021/09/09 03:12:56;;;;;;;8.98;6.15;;;18.60;74.10;;;;;;2044150;29;20031;-96
2021/09/09 03:14:15;;;;;;;;;;;18.60;74.10;;;;;;2057141;28;20039;-96
2021/09/09 03:15:35;;;;;;;8.27;5.82;;;18.60;74.00;;;;;;2040986;29;20037;-96
2021/09/09 03:16:56;;;;;;;7.75;5.70;;;18.60;74.00;;;;;;2055376;28;20031;-96
2021/09/09 03:18:17;;;;;;;8.23;6.03;;;18.60;74.10;;;;;;2055823;29;20114;-96
2021/09/09 03:19:39;;;;;;;9.63;6.72;;;18.60;74.10;;;;;;2036012;29;20032;-96
2021/09/09 03:21:06;;;;;;;9.90;6.70;;;18.50;74.20;;;;;;2063725;28;20055;-96
2021/09/09 03:22:46;;;;;;;8.95;6.63;;;18.50;74.30;;;;;;2057422;28;20532;-96
2021/09/09 03:24:15;;;;;;;7.80;6.10;;;18.50;74.30;;;;;;2073565;28;20027;-96
2021/09/09 03:25:36;;;;;;;8.50;6.28;;;18.50;74.40;;;;;;2048877;29;20043;-96
2021/09/09 03:27:00;;;;;;;7.95;5.80;;;18.40;74.30;;;;;;2042536;29;20037;-96
2021/09/09 03:28:20;;;;;;;8.38;6.25;;;18.40;74.40;;;;;;2055055;28;20034;-96
2021/09/09 03:29:42;;;;;;;10.05;6.80;;;18.40;74.50;;;;;;2054040;29;20035;-96
2021/09/09 03:31:01;;;;;;;8.20;6.40;;;18.40;74.50;;;;;;2043385;29;20091;-96
2021/09/09 03:32:21;;;;;;;8.90;6.65;;;18.40;74.60;;;;;;2050191;29;20035;-96
2021/09/09 03:33:40;;;;;;;8.65;6.60;;;18.40;75.20;;;;;;2047710;29;20043;-96
2021/09/09 03:35:01;;;;;;;8.93;6.72;;;18.40;74.70;;;;;;2047204;29;20036;-95
2021/09/09 03:36:23;;;;;;;9.73;6.70;;;18.40;74.70;;;;;;2036948;29;20032;-96
2021/09/09 03:38:01;;;;;;;10.30;6.40;;;18.30;74.70;;;;;;2053327;29;20055;-96
2021/09/09 03:39:51;;;;;;;9.93;7.32;;;18.30;74.80;;;;;;2057449;28;20008;-96
2021/09/09 03:42:07;;;;;;;9.23;6.63;;;18.30;74.70;;;;;;2019761;29;20041;-96
2021/09/09 03:43:27;;;;;;;8.13;6.13;;;18.30;74.80;;;;;;2030777;29;20056;-96
2021/09/09 03:44:48;;;;;;;9.07;6.97;;;18.30;74.80;;;;;;2026048;29;20115;-96
2021/09/09 03:46:07;;;;;;;9.05;6.75;;;18.20;74.80;;;;;;2030741;29;20292;-96
2021/09/09 03:47:26;;;;;;;11.65;7.72;;;18.20;74.80;;;;;;2020405;29;20055;-96
2021/09/09 03:48:46;;;;;;;9.73;7.40;;;18.20;74.90;;;;;;2019734;29;20037;-96
2021/09/09 03:50:06;;;;;;;8.88;7.07;;;18.20;74.90;;;;;;2014841;29;20045;-96
2021/09/09 03:51:26;;;;;;;9.20;6.75;;;18.20;74.90;;;;;;2030208;29;20515;-95
2021/09/09 03:52:45;;;;;;;9.05;6.85;;;18.20;75.00;;;;;;2014974;29;20037;-96
2021/09/09 03:54:05;;;;;;;10.38;6.97;;;18.20;75.00;;;;;;2011420;29;20038;-96
2021/09/09 03:55:26;;;;;;;9.40;6.82;;;18.20;75.00;;;;;;2021629;29;20041;-96
2021/09/09 03:56:46;;;;;;;;;;;18.20;75.10;;;;;;2008684;29;20050;-96
2021/09/09 03:58:05;;;;;;;7.70;6.13;;;18.20;75.00;;;;;;2020322;29;19916;-96
2021/09/09 03:59:25;;;;;;;9.02;6.53;;;18.10;75.00;;;;;;2028429;29;20062;-96
2021/09/09 04:00:44;;;;;;;8.70;6.80;;;18.10;75.00;;;;;;2015782;29;20041;-96
2021/09/09 04:02:05;;;;;;;8.25;6.50;;;18.10;75.10;;;;;;2020367;29;20054;-96
2021/09/09 04:03:24;;;;;;;;;;;18.10;75.10;;;;;;2028490;29;20037;-96
2021/09/09 04:04:46;;;;;;;8.90;6.72;;;18.10;75.10;;;;;;2036654;29;19915;-96
2021/09/09 04:06:07;;;;;;;8.50;6.35;;;18.10;75.10;;;;;;2022728;29;20100;-96
2021/09/09 04:07:28;;;;;;;9.10;6.80;;;18.10;75.20;;;;;;2028136;29;20044;-96
2021/09/09 04:08:47;;;;;;;9.40;7.18;;;18.10;75.20;;;;;;2013683;29;20046;-96
2021/09/09 04:10:09;;;;;;;8.93;6.70;;;18.00;75.20;;;;;;2023128;29;20032;-96
2021/09/09 04:11:29;;;;;;;9.77;7.05;;;18.00;75.30;;;;;;2031089;29;20044;-96
2021/09/09 04:12:50;;;;;;;10.63;7.82;;;18.00;75.40;;;;;;2025017;29;20048;-96
2021/09/09 04:14:11;;;;;;;;;;;18.00;75.40;;;;;;2055412;29;20095;-96
2021/09/09 04:15:30;;;;;;;;;;;18.00;75.40;;;;;;2055360;29;19910;-96
2021/09/09 04:16:51;;;;;;;8.32;6.22;;;18.00;75.30;;;;;;2051559;29;19898;-94
2021/09/09 04:18:12;;;;;;;10.18;6.50;;;18.00;75.30;;;;;;2057317;28;20035;-95
2021/09/09 04:19:51;;;;;;;9.52;6.78;;;18.00;75.40;;;;;;2060796;29;20027;-96
2021/09/09 04:21:12;;;;;;;9.70;7.07;;;18.00;75.40;;;;;;2067648;28;20031;-96
2021/09/09 04:22:34;;;;;;;9.65;7.10;;;17.90;75.40;;;;;;2045180;29;20071;-95
2021/09/09 04:23:54;;;;;;;9.40;6.65;;;17.90;75.50;;;;;;2053760;28;20031;-96
2021/09/09 04:25:15;;;;;;;8.93;6.63;;;17.90;75.50;;;;;;2059367;28;20113;-96
2021/09/09 04:26:36;;;;;;;10.27;6.93;;;17.90;75.50;;;;;;2064694;28;20018;-96
2021/09/09 04:27:56;;;;;;;9.23;6.88;;;17.90;75.60;;;;;;2058562;29;20032;-95
2021/09/09 04:29:16;;;;;;;9.57;7.45;;;17.90;75.60;;;;;;2055675;29;20058;-96
2021/09/09 04:30:36;;;;;;;8.98;7.18;;;17.90;75.70;;;;;;2061077;28;20038;-96
2021/09/09 04:31:56;;;;;;;9.48;7.18;;;17.90;75.70;;;;;;2062057;28;20035;-96
2021/09/09 04:33:15;;;;;;;9.85;7.32;;;17.90;75.70;;;;;;2051006;28;20035;-96
2021/09/09 04:34:35;;;;;;;10.55;7.90;;;17.90;75.80;;;;;;2055732;28;20023;-96
2021/09/09 04:35:55;;;;;;;9.95;7.10;;;17.90;75.80;;;;;;2037854;29;20040;-96
2021/09/09 04:37:14;;;;;;;8.95;6.60;;;17.90;76.00;;;;;;2055754;28;20035;-96
2021/09/09 04:38:34;;;;;;;10.85;7.82;;;17.90;75.90;;;;;;2048329;29;20423;-96
2021/09/09 04:39:54;;;;;;;9.82;7.15;;;17.90;76.00;;;;;;2045263;29;20040;-95
2021/09/09 04:41:16;;;;;;;10.55;7.93;;;17.90;76.00;;;;;;2050552;29;20063;-96
2021/09/09 04:42:36;;;;;;;10.13;7.70;;;17.90;76.10;;;;;;2042827;29;20043;-96
2021/09/09 04:43:55;;;;;;;9.35;7.13;;;17.80;76.60;;;;;;2047592;29;20042;-96
2021/09/09 04:45:14;;;;;;;10.48;7.50;;;17.80;76.10;;;;;;2051733;29;20035;-96
2021/09/09 04:46:35;;;;;;;8.63;6.82;;;17.80;76.10;;;;;;2047328;29;20512;-95
2021/09/09 04:47:55;;;;;;;9.90;7.65;;;17.80;76.10;;;;;;2035386;29;20037;-96
2021/09/09 04:49:15;;;;;;;10.13;7.38;;;17.80;76.10;;;;;;2027979;29;20067;-96
2021/09/09 04:50:35;;;;;;;9.37;7.77;;;17.80;76.10;;;;;;2046473;29;20047;-96
2021/09/09 04:51:54;;;;;;;9.95;7.28;;;17.80;76.10;;;;;;2061987;28;20298;-95
2021/09/09 04:53:13;;;;;;;9.75;7.38;;;17.90;76.20;;;;;;2069923;28;20408;-96
2021/09/09 04:54:33;;;;;;;9.25;7.38;;;17.80;76.10;;;;;;2041744;29;20040;-96
2021/09/09 04:55:52;;;;;;;9.98;7.72;;;17.80;76.20;;;;;;2043637;29;20044;-96
2021/09/09 04:57:13;;;;;;;9.45;7.13;;;17.80;76.20;;;;;;2050966;29;20452;-96
2021/09/09 04:58:32;;;;;;;9.35;6.97;;;17.80;76.20;;;;;;2045045;29;20039;-96
2021/09/09 04:59:53;;;;;;;8.60;6.82;;;17.80;76.80;;;;;;2054809;28;20039;-96
2021/09/09 05:01:15;;;;;;;9.35;6.90;;;17.80;76.20;;;;;;2048573;29;20028;-96
2021/09/09 05:02:47;;;;;;;9.25;6.93;;;17.80;76.20;;;;;;2052000;28;20047;-96
2021/09/09 05:06:33;;;;;;;9.20;6.93;;;17.80;76.90;;;;;;2047869;29;20040;-96
2021/09/09 05:08:18;;;;;;;10.82;6.70;;;17.80;76.30;;;;;;2053159;29;20031;-95
2021/09/09 05:09:37;;;;;;;10.07;6.75;;;17.80;76.30;;;;;;2037864;29;20040;-95
2021/09/09 05:10:57;;;;;;;10.02;7.60;;;17.80;76.30;;;;;;2021300;29;20026;-95
2021/09/09 05:12:17;;;;;;;9.27;7.18;;;17.80;76.40;;;;;;2034684;29;20032;-96
2021/09/09 05:13:37;;;;;;;9.40;7.18;;;17.80;77.00;;;;;;2032829;29;20575;-95
2021/09/09 05:14:56;;;;;;;9.98;7.65;;;17.70;76.30;;;;;;2028990;29;20036;-95
2021/09/09 05:16:16;;;;;;;11.25;8.00;;;17.80;76.40;;;;;;2022325;29;20036;-95
2021/09/09 05:17:37;;;;;;;12.57;8.50;;;17.80;76.40;;;;;;2024175;29;20041;-96
2021/09/09 05:18:57;;;;;;;9.77;7.40;;;17.80;76.50;;;;;;2044514;28;20032;-94
2021/09/09 05:20:17;;;;;;;10.35;7.93;;;17.70;76.40;;;;;;2046306;28;20087;-94
2021/09/09 05:21:37;;;;;;;11.23;7.32;;;17.70;76.50;;;;;;2052531;28;20019;-94
2021/09/09 05:22:57;;;;;;;9.93;7.60;;;17.70;76.50;;;;;;2049543;29;20043;-94
2021/09/09 05:24:16;;;;;;;9.77;7.63;;;17.70;76.60;;;;;;2050755;28;20019;-96
2021/09/09 05:25:37;;;;;;;9.63;7.78;;;17.70;76.60;;;;;;2041101;29;20055;-93
2021/09/09 05:26:57;;;;;;;11.07;8.18;;;17.70;76.60;;;;;;2044092;28;20028;-92
2021/09/09 05:28:16;;;;;;;10.32;7.53;;;17.70;76.60;;;;;;2039701;29;20008;-94
2021/09/09 05:29:35;;;;;;;10.25;7.57;;;17.70;76.60;;;;;;2045295;29;21909;-94
2021/09/09 05:30:55;;;;;;;10.40;7.60;;;17.70;76.60;;;;;;2048812;29;20019;-93
2021/09/09 05:32:14;;;;;;;9.65;7.55;;;17.70;76.60;;;;;;2049069;28;20016;-95
2021/09/09 05:33:34;;;;;;;10.45;7.47;;;17.80;76.70;;;;;;2038612;29;20032;-94
2021/09/09 05:34:53;;;;;;;9.80;7.50;;;17.80;76.70;;;;;;2044781;28;20036;-95
2021/09/09 05:36:13;;;;;;;10.43;7.68;;;17.80;76.70;;;;;;2048997;29;20047;-94
2021/09/09 05:37:33;;;;;;;9.93;7.40;;;17.80;76.70;;;;;;2038798;29;20083;-95
2021/09/09 05:38:52;;;;;;;9.60;7.30;;;17.80;76.60;;;;;;2037360;29;20108;-93
2021/09/09 05:40:14;;;;;;;8.38;6.80;;;17.80;76.60;;;;;;2033559;29;20028;-94
2021/09/09 05:41:35;;;;;;;9.98;7.43;;;17.80;76.60;;;;;;2042349;28;20028;-94
2021/09/09 05:42:55;;;;;;;9.63;7.30;;;17.80;76.60;;;;;;2043233;29;20048;-95
2021/09/09 05:44:14;;;;;;;10.75;7.72;;;17.90;76.60;;;;;;2041505;29;20032;-95
2021/09/09 05:45:33;;;;;;;9.40;7.35;;;17.80;76.50;;;;;;2041547;29;20040;-95
2021/09/09 05:46:53;;;;;;;12.15;7.43;;;17.90;76.50;;;;;;2037643;29;20068;-96
2021/09/09 05:48:12;;;;;;;10.13;7.88;;;17.90;76.60;;;;;;2036357;29;20092;-94
2021/09/09 05:49:31;;;;;;;9.48;7.50;;;17.90;76.50;;;;;;2048948;29;20040;-95
2021/09/09 05:50:50;;;;;;;10.55;8.13;;;17.90;76.50;;;;;;2044729;28;20036;-94
2021/09/09 05:52:10;;;;;;;10.98;7.40;;;17.90;76.50;;;;;;2055096;28;20020;-94
2021/09/09 05:53:29;;;;;;;10.73;7.07;;;18.00;76.50;;;;;;2068294;28;20031;-95
2021/09/09 05:54:48;;;;;;;10.65;7.78;;;17.90;76.40;;;;;;2056454;29;20031;-94
2021/09/09 05:56:08;;;;;;;8.63;7.22;;;18.00;76.40;;;;;;2063125;28;20026;-95
2021/09/09 05:57:28;;;;;;;10.40;7.97;;;18.00;76.40;;;;;;2066463;28;20030;-95
2021/09/09 05:58:47;;;;;;;10.35;8.23;;;18.00;76.40;;;;;;2059592;28;20030;-95
2021/09/09 06:00:09;;;;;;;9.98;7.22;;;18.00;76.30;;;;;;2043829;29;20502;-94
2021/09/09 06:01:28;;;;;;;9.70;7.50;;;18.10;76.40;;;;;;2054189;28;20023;-95
2021/09/09 06:02:48;;;;;;;11.38;8.15;;;18.10;76.30;;;;;;2056086;28;20031;-94
2021/09/09 06:04:10;;;;;;;11.10;8.52;;;18.10;76.20;;;;;;2054022;28;20042;-94
2021/09/09 06:05:32;;;;;;;10.30;8.02;;;18.10;76.20;;;;;;2047790;29;20035;-95
2021/09/09 06:06:52;;;;;;;10.13;7.72;;;18.20;76.20;;;;;;2060131;28;20030;-94
2021/09/09 06:08:11;;;;;;;10.77;7.97;;;18.20;76.10;;;;;;2063103;28;20381;-95
2021/09/09 06:09:30;;;;;;;9.98;7.78;;;18.20;76.10;;;;;;2057543;28;20031;-93
2021/09/09 06:10:49;;;;;;;9.13;7.35;;;18.30;76.10;;;;;;2034423;29;20433;-94
2021/09/09 06:12:09;;;;;;;9.65;7.32;;;18.30;76.00;;;;;;2061316;28;20034;-93
2021/09/09 06:13:28;;;;;;;10.02;7.55;;;18.30;75.90;;;;;;2067806;28;20078;-93
2021/09/09 06:14:48;;;;;;;13.25;8.30;;;18.30;75.80;;;;;;2059428;28;20417;-93
2021/09/09 06:16:07;;;;;;;11.23;8.20;;;18.30;75.70;;;;;;2048887;29;20070;-92
2021/09/09 06:17:26;;;;;;;9.95;7.55;;;18.30;75.70;;;;;;2050328;28;20046;-95
2021/09/09 06:18:45;;;;;;;10.60;7.90;;;18.30;75.70;;;;;;2067363;28;20038;-93
2021/09/09 06:20:05;;;;;;;12.10;8.88;;;18.40;75.70;;;;;;2052594;28;20070;-94
2021/09/09 06:21:25;;;;;;;10.85;8.50;;;18.30;75.70;;;;;;2054364;28;20027;-93
2021/09/09 06:22:44;;;;;;;11.82;8.98;;;18.30;75.70;;;;;;2056026;28;20050;-94
2021/09/09 06:24:07;;;;;;;12.27;8.68;;;18.30;75.70;;;;;;2056313;28;20117;-93
2021/09/09 06:25:26;;;;;;;11.73;8.73;;;18.40;75.80;;;;;;2047883;29;20129;-94
2021/09/09 06:26:45;;;;;;;12.65;9.30;;;18.30;75.80;;;;;;2048431;29;20039;-93
2021/09/09 06:28:04;;;;;;;14.07;10.25;;;18.30;75.80;;;;;;2047109;29;20043;-93
2021/09/09 06:29:24;;;;;;;12.00;9.68;;;18.30;75.90;;;;;;2055157;28;20027;-94
2021/09/09 06:30:43;;;;;;;11.13;9.07;;;18.30;75.90;;;;;;2044399;28;20050;-89
2021/09/09 06:32:03;;;;;;;13.05;9.80;;;18.30;76.00;;;;;;2052561;28;20038;-88
2021/09/09 06:33:23;;;;;;;14.05;9.63;;;18.30;76.00;;;;;;2048711;28;20038;-89
2021/09/09 06:34:42;;;;;;;12.37;10.10;;;18.30;76.00;;;;;;2068388;28;20212;-89
2021/09/09 06:36:02;;;;;;;11.82;8.90;;;18.30;76.00;;;;;;2061315;28;20274;-89
2021/09/09 06:37:21;;;;;;;12.67;9.30;;;18.30;76.00;;;;;;2049659;29;20035;-89
2021/09/09 06:38:41;;;;;;;12.45;9.82;;;18.30;76.10;;;;;;2052638;28;20282;-89
2021/09/09 06:40:00;;;;;;;14.18;10.48;;;18.30;76.00;;;;;;2046814;28;20039;-89
2021/09/09 06:41:19;;;;;;;12.85;9.60;;;18.30;76.10;;;;;;2041013;29;20024;-88
2021/09/09 06:42:40;;;;;;;14.55;10.85;;;18.30;76.00;;;;;;2051824;28;20035;-89
2021/09/09 06:43:59;;;;;;;13.10;9.27;;;18.40;76.00;;;;;;2060256;28;20062;-90
2021/09/09 06:45:18;;;;;;;10.57;8.52;;;18.30;76.00;;;;;;2063184;28;20046;-90
2021/09/09 06:46:38;;;;;;;13.50;9.77;;;18.40;76.00;;;;;;2050062;28;20067;-91
2021/09/09 06:47:57;;;;;;;12.50;9.27;;;18.40;76.00;;;;;;2045907;29;20039;-92
2021/09/09 06:49:16;;;;;;;12.30;9.05;;;18.40;76.00;;;;;;2056120;28;20109;-90
2021/09/09 06:50:38;;;;;;;11.98;8.50;;;18.50;76.00;;;;;;2039931;28;20115;-90
2021/09/09 06:51:57;;;;;;;12.63;8.48;;;18.50;75.80;;;;;;2049462;28;20047;-90
2021/09/09 06:53:16;;;;;;;10.95;8.50;;;18.60;75.80;;;;;;2052568;28;20401;-90
2021/09/09 06:54:36;;;;;;;12.23;8.30;;;18.60;75.70;;;;;;2051654;28;20034;-90
2021/09/09 06:55:55;;;;;;;12.55;8.85;;;18.60;75.60;;;;;;2055074;28;20031;-90
2021/09/09 06:57:14;;;;;;;10.68;7.47;;;18.70;75.60;;;;;;2050162;29;20127;-89
2021/09/09 06:58:33;;;;;;;10.60;8.40;;;18.70;75.60;;;;;;2044601;28;20047;-90
2021/09/09 06:59:52;;;;;;;9.18;7.53;;;18.80;75.60;;;;;;2054220;28;20047;-90
2021/09/09 07:01:11;;;;;;;10.40;8.00;;;18.80;75.50;;;;;;2045063;29;20039;-89
2021/09/09 07:02:31;;;;;;;10.52;7.88;;;18.80;75.30;;;;;;2052635;28;20039;-89